Time;durP1;ratioP1;P1;durP2;ratioP2;P2;SDS_P1;SDS_P2;PMS_P1;PMS_P2;Temp;Humidity;BMP_temperature;BMP_pressure;BME280_temperature;BME280_humidity;BME280_pressure;Samples;Min_cycle;Max_cycle;Signal;HPM_P1;HPM_P2
2021/06/25 00:01:00;;;;;;;;;;;26.60;99.90;;;;;;1896290;75;20131;-91
2021/06/25 00:03:30;;;;;;;;;;;26.60;99.90;;;;;;1875460;77;20232;-91
2021/06/25 00:06:18;;;;;;;;;;;26.70;99.90;;;;;;1872990;76;20267;-92
2021/06/25 00:08:52;;;;;;;;;;;26.70;99.90;;;;;;1873342;77;20177;-91
2021/06/25 00:11:43;;;;;;;;;;;26.70;99.90;;;;;;1887171;75;20202;-92
2021/06/25 00:14:20;;;;;;;;;;;26.70;99.90;;;;;;1889909;75;20142;-91
2021/06/25 00:16:45;;;;;;;;;;;26.70;99.90;;;;;;1868147;76;20202;-91
2021/06/25 00:19:16;;;;;;;;;;;26.80;99.90;;;;;;1844529;77;20210;-92
2021/06/25 00:21:50;;;;;;;;;;;26.80;99.90;;;;;;1827969;78;20205;-91
2021/06/25 00:24:20;;;;;;;;;;;26.80;99.90;;;;;;1837538;76;20172;-91
2021/06/25 00:27:08;;;;;;;;;;;26.80;99.90;;;;;;1828393;78;20194;-89
2021/06/25 00:29:44;;;;;;;;;;;26.80;99.90;;;;;;1828331;78;20250;-90
2021/06/25 00:32:17;;;;;;;;;;;26.90;99.90;;;;;;1833314;78;20257;-91
2021/06/25 00:34:45;;;;;;;;;;;26.90;99.90;;;;;;1831572;78;20131;-91
2021/06/25 00:37:21;;;;;;;;;;;26.90;99.90;;;;;;1799439;79;20261;-92
2021/06/25 00:40:01;;;;;;;;;;;27.00;99.90;;;;;;1801021;78;20190;-90
2021/06/25 00:42:36;;;;;;;;;;;27.00;99.90;;;;;;1834654;77;20168;-90
2021/06/25 00:45:24;;;;;;;;;;;27.00;99.90;;;;;;1836086;77;20141;-87
2021/06/25 00:47:53;;;;;;;;;;;27.00;99.90;;;;;;1841460;76;20221;-81
2021/06/25 00:50:24;;;;;;;;;;;27.10;99.90;;;;;;1831853;78;20251;-79
2021/06/25 00:52:55;;;;;;;;;;;27.10;99.90;;;;;;1835720;78;20197;-84
2021/06/25 00:55:26;;;;;;;;;;;27.10;99.90;;;;;;1802356;79;20347;-78
2021/06/25 00:57:56;;;;;;;;;;;27.10;99.90;;;;;;1832617;77;20211;-79
2021/06/25 01:00:26;;;;;;;;;;;27.20;99.90;;;;;;1866986;75;20234;-79
2021/06/25 01:02:56;;;;;;;;;;;27.20;99.90;;;;;;1872513;75;20236;-81
2021/06/25 01:05:26;;;;;;;;;;;27.20;99.90;;;;;;1866680;77;20267;-81
2021/06/25 01:07:56;;;;;;;;;;;27.20;99.90;;;;;;1874996;75;20235;-77
2021/06/25 01:10:26;;;;;;;;;;;27.20;99.90;;;;;;1870049;77;20229;-79
2021/06/25 01:12:57;;;;;;;;;;;27.30;99.90;;;;;;1873972;75;20217;-78
2021/06/25 01:15:28;;;;;;;;;;;27.30;99.90;;;;;;1874777;75;20256;-79
2021/06/25 01:17:57;;;;;;;;;;;27.40;99.90;;;;;;1868918;77;20474;-81
2021/06/25 01:20:28;;;;;;;;;;;27.50;99.90;;;;;;1870191;77;20165;-80
2021/06/25 01:22:59;;;;;;;;;;;27.60;99.90;;;;;;1867266;77;20213;-81
2021/06/25 01:25:30;;;;;;;;;;;27.60;99.90;;;;;;1870687;75;20213;-80
2021/06/25 01:28:01;;;;;;;;;;;27.80;99.40;;;;;;1874460;75;20155;-80
2021/06/25 01:30:32;;;;;;;;;;;27.90;98.40;;;;;;1868790;75;20181;-80
2021/06/25 01:33:04;;;;;;;;;;;28.10;97.90;;;;;;1869652;75;20127;-80
2021/06/25 01:35:34;;;;;;;;;;;28.20;97.30;;;;;;1866456;76;20188;-80
2021/06/25 01:38:04;;;;;;;;;;;28.30;96.80;;;;;;1868601;76;20649;-80
2021/06/25 01:40:36;;;;;;;;;;;28.50;96.40;;;;;;1865246;77;20224;-85
2021/06/25 01:43:06;;;;;;;;;;;28.60;95.70;;;;;;1869328;76;20496;-80
2021/06/25 01:45:37;;;;;;;;;;;28.70;95.20;;;;;;1872143;75;20189;-83
2021/06/25 01:48:08;;;;;;;;;;;28.80;95.00;;;;;;1868396;77;20220;-81
2021/06/25 01:50:39;;;;;;;;;;;28.90;95.20;;;;;;1868007;75;20220;-80
2021/06/25 01:53:10;;;;;;;;;;;29.10;95.10;;;;;;1874952;75;20215;-81
2021/06/25 01:55:41;;;;;;;;;;;29.20;95.10;;;;;;1881337;75;20206;-83
2021/06/25 01:58:12;;;;;;;;;;;29.40;94.60;;;;;;1880090;75;20253;-79
2021/06/25 02:00:43;;;;;;;;;;;29.50;92.90;;;;;;1882721;75;20169;-80
2021/06/25 02:03:12;;;;;;;;;;;29.70;93.10;;;;;;1880089;75;20209;-79
2021/06/25 02:05:42;;;;;;;;;;;29.80;92.50;;;;;;1867821;75;20157;-79
2021/06/25 02:08:12;;;;;;;;;;;29.90;92.20;;;;;;1869018;75;20511;-79
2021/06/25 02:10:42;;;;;;;;;;;29.90;91.20;;;;;;1870930;75;20205;-79
2021/06/25 02:13:11;;;;;;;;;;;29.80;91.40;;;;;;1893742;75;20132;-80
2021/06/25 02:15:41;;;;;;;;;;;29.80;92.10;;;;;;1885514;75;20183;-79
2021/06/25 02:18:10;;;;;;;;;;;29.80;92.10;;;;;;1892443;75;20202;-79
2021/06/25 02:20:40;;;;;;;;;;;29.80;91.60;;;;;;1867764;77;20199;-79
2021/06/25 02:23:11;;;;;;;;;;;29.70;91.20;;;;;;1844679;77;20229;-79
2021/06/25 02:27:19;;;;;;;;;;;29.70;91.00;;;;;;1867577;75;20166;-79
2021/06/25 02:28:40;;;;;;;;;;;29.80;91.40;;;;;;1790402;75;20218;-81
2021/06/25 02:31:09;;;;;;;;;;;29.80;91.40;;;;;;1873274;76;20149;-80
2021/06/25 02:33:39;;;;;;;;;;;29.90;91.10;;;;;;1874214;75;20493;-81
2021/06/25 02:36:09;;;;;;;;;;;30.00;91.00;;;;;;1877492;75;20201;-79
2021/06/25 02:38:44;;;;;;;;;;;30.10;91.00;;;;;;1882558;75;20211;-80
2021/06/25 02:41:14;;;;;;;;;;;30.10;90.80;;;;;;1879375;75;20213;-81
2021/06/25 02:43:48;;;;;;;;;;;30.20;89.10;;;;;;1846702;78;20226;-81
2021/06/25 02:46:22;;;;;;;;;;;30.10;88.80;;;;;;1860928;76;20212;-81
2021/06/25 02:49:01;;;;;;;;;;;30.10;89.70;;;;;;1874310;76;20436;-81
2021/06/25 02:54:06;;;;;;;;;;;30.20;89.80;;;;;;1732281;83;21041;-81
2021/06/25 02:54:40;;;;;;;;;;;30.30;90.20;;;;;;1652176;83;20260;-81
2021/06/25 02:57:50;;;;;;;;;;;30.40;87.50;;;;;;1710443;83;20756;-81
2021/06/25 03:00:21;;;;;;;;;;;30.50;87.20;;;;;;1716048;82;20267;-80
2021/06/25 03:02:55;;;;;;;;;;;30.60;85.80;;;;;;1724337;81;20218;-80
2021/06/25 03:05:27;;;;;;;;;;;30.50;86.60;;;;;;1725604;82;20550;-80
2021/06/25 03:08:02;;;;;;;;;;;30.80;84.90;;;;;;1723545;81;20254;-80
2021/06/25 03:10:48;;;;;;;;;;;;;;;;;;;;;
2021/06/25 03:13:43;;;;;;;;;;;30.90;86.10;;;;;;1673813;84;20178;-80
2021/06/25 03:15:49;;;;;;;;;;;31.00;85.20;;;;;;1684692;84;20343;-78
2021/06/25 03:18:24;;;;;;;;;;;31.10;84.40;;;;;;1693545;84;20290;-79
2021/06/25 03:20:57;;;;;;;;;;;31.20;84.80;;;;;;1697468;84;20256;-78
2021/06/25 03:23:31;;;;;;;;;;;31.30;84.80;;;;;;1701203;83;20188;-79
2021/06/25 03:26:00;;;;;;;;;;;31.40;82.50;;;;;;1699532;84;20256;-81
2021/06/25 03:28:30;;;;;;;;;;;31.50;83.20;;;;;;1721251;80;20513;-78
2021/06/25 03:31:00;;;;;;;;;;;31.60;80.30;;;;;;1789543;80;20250;-80
2021/06/25 03:33:50;;;;;;;;;;;31.50;81.60;;;;;;1809182;78;20166;-79
2021/06/25 03:36:30;;;;;;;;;;;31.50;81.60;;;;;;1856728;77;20136;-82
2021/06/25 03:39:03;;;;;;;;;;;31.40;82.10;;;;;;1867347;77;20646;-81
2021/06/25 03:41:33;;;;;;;;;;;31.40;81.80;;;;;;1840940;77;20222;-80
2021/06/25 03:44:03;;;;;;;;;;;31.40;82.00;;;;;;1858893;76;20555;-79
2021/06/25 03:46:37;;;;;;;;;;;31.40;81.80;;;;;;1867436;75;20217;-79
2021/06/25 03:49:11;;;;;;;;;;;31.40;81.30;;;;;;1820530;77;20258;-81
2021/06/25 03:51:40;;;;;;;;;;;31.30;81.40;;;;;;1826270;78;20164;-79
2021/06/25 03:54:13;;;;;;;;;;;31.30;82.10;;;;;;1838797;76;20123;-81
2021/06/25 03:56:53;;;;;;;;;;;31.40;83.30;;;;;;1826288;77;20218;-80
2021/06/25 03:59:28;;;;;;;;;;;31.60;82.20;;;;;;1825628;78;20362;-79
2021/06/25 04:01:58;;;;;;;;;;;31.80;81.60;;;;;;1786598;79;20233;-77
2021/06/25 04:04:34;;;;;;;;;;;31.90;79.90;;;;;;1793902;78;20193;-77
2021/06/25 04:07:22;;;;;;;;;;;32.00;80.60;;;;;;1824735;78;20156;-78
2021/06/25 04:09:50;;;;;;;;;;;32.20;80.70;;;;;;1821774;78;20190;-79
2021/06/25 04:12:32;;;;;;;;;;;32.30;78.30;;;;;;1825248;77;20191;-79
2021/06/25 04:15:07;;;;;;;;;;;32.50;77.70;;;;;;1833740;77;20237;-79
2021/06/25 04:17:52;;;;;;;;;;;32.50;78.70;;;;;;1834495;76;20179;-79
2021/06/25 04:20:18;;;;;;;;;;;32.60;77.40;;;;;;1835824;78;20241;-79
2021/06/25 04:22:52;;;;;;;;;;;32.60;77.60;;;;;;1838740;78;20670;-79
2021/06/25 04:25:41;;;;;;;;;;;32.70;77.30;;;;;;1837867;78;20698;-79
2021/06/25 04:28:13;;;;;;;;;;;32.80;75.10;;;;;;1824467;77;20215;-79
2021/06/25 04:30:43;;;;;;;;;;;32.80;75.80;;;;;;1823164;78;20260;-81
2021/06/25 04:33:21;;;;;;;;;;;32.80;75.10;;;;;;1822310;77;20163;-81
2021/06/25 04:36:19;;;;;;;;;;;32.80;76.20;;;;;;1786230;79;20497;-80
2021/06/25 04:38:49;;;;;;;;;;;32.80;76.70;;;;;;1838473;77;20239;-79
2021/06/25 04:41:41;;;;;;;;;;;32.80;75.10;;;;;;1833673;77;20902;-78
2021/06/25 04:44:07;;;;;;;;;;;32.80;76.80;;;;;;1796627;78;20251;-80
2021/06/25 04:46:42;;;;;;;;;;;32.90;75.40;;;;;;1835783;77;20231;-77
2021/06/25 04:49:21;;;;;;;;;;;33.10;73.00;;;;;;1834777;77;20152;-80
2021/06/25 04:51:55;;;;;;;;;;;33.10;72.20;;;;;;1839102;76;20431;-78
2021/06/25 04:54:25;;;;;;;;;;;33.20;70.50;;;;;;1844703;77;20473;-78
2021/06/25 04:57:03;;;;;;;;;;;33.20;70.90;;;;;;1829869;77;20232;-79
2021/06/25 04:59:32;;;;;;;;;;;33.10;71.30;;;;;;1848525;77;20219;-78
2021/06/25 05:02:07;;;;;;;;;;;33.00;72.70;;;;;;1831579;77;20169;-80
2021/06/25 05:04:54;;;;;;;;;;;;;;;;;;;;;
2021/06/25 05:07:17;;;;;;;;;;;33.00;72.10;;;;;;1698634;82;20261;-79
2021/06/25 05:09:47;;;;;;;;;;;33.00;71.20;;;;;;1715680;82;20289;-79
2021/06/25 05:12:17;;;;;;;;;;;33.10;72.30;;;;;;1719813;82;20312;-77
2021/06/25 05:14:47;;;;;;;;;;;33.10;71.80;;;;;;1720116;82;20278;-78
2021/06/25 05:17:16;;;;;;;;;;;33.20;73.20;;;;;;1737050;81;20495;-79
2021/06/25 05:19:53;;;;;;;;;;;33.20;73.50;;;;;;1737596;81;20297;-78
2021/06/25 05:22:47;;;;;;;;;;;33.30;73.30;;;;;;1733428;82;20253;-79
2021/06/25 05:25:06;;;;;;;;;;;33.40;70.10;;;;;;1732472;81;20491;-79
2021/06/25 05:27:51;;;;;;;;;;;33.40;70.00;;;;;;1738982;81;20296;-80
2021/06/25 05:30:14;;;;;;;;;;;33.30;70.20;;;;;;1733731;80;20312;-80
2021/06/25 05:32:48;;;;;;;;;;;33.20;69.70;;;;;;1750039;80;20407;-80
2021/06/25 05:35:17;;;;;;;;;;;33.20;70.30;;;;;;1755387;81;20264;-81
2021/06/25 05:37:49;;;;;;;;;;;33.10;69.90;;;;;;1763099;80;20347;-80
2021/06/25 05:40:26;;;;;;;;;;;33.10;70.30;;;;;;1760034;80;20232;-80
2021/06/25 05:43:12;;;;;;;;;;;33.20;70.90;;;;;;1762497;81;20248;-81
2021/06/25 05:45:38;;;;;;;;;;;33.20;71.70;;;;;;1829417;76;20463;-79
2021/06/25 05:48:09;;;;;;;;;;;33.30;71.10;;;;;;1841371;77;20461;-79
2021/06/25 05:50:45;;;;;;;;;;;33.30;70.00;;;;;;1843467;76;20226;-83
2021/06/25 05:53:18;;;;;;;;;;;33.20;70.40;;;;;;1840889;77;20245;-82
2021/06/25 05:55:53;;;;;;;;;;;33.30;70.40;;;;;;1847076;76;20194;-84
2021/06/25 05:58:28;;;;;;;;;;;33.30;70.80;;;;;;1844181;76;20244;-81
2021/06/25 06:01:01;;;;;;;;;;;33.30;69.30;;;;;;1847058;76;20154;-82
2021/06/25 06:03:29;;;;;;;;;;;33.40;69.40;;;;;;1844504;77;20166;-81
2021/06/25 06:06:03;;;;;;;;;;;33.40;69.90;;;;;;1842706;77;20232;-81
2021/06/25 06:08:37;;;;;;;;;;;33.50;70.20;;;;;;1847673;76;20246;-81
2021/06/25 06:11:07;;;;;;;;;;;33.70;69.00;;;;;;1845495;76;20197;-84
2021/06/25 06:13:40;;;;;;;;;;;33.80;68.90;;;;;;1843221;77;20286;-80
2021/06/25 06:16:11;;;;;;;;;;;33.80;68.20;;;;;;1845687;76;20206;-81
2021/06/25 06:18:48;;;;;;;;;;;33.80;67.50;;;;;;1845954;77;20265;-79
2021/06/25 06:32:31;;;;;;;;;;;33.50;67.70;;;;;;1823085;76;20224;-80
2021/06/25 06:34:59;;;;;;;;;;;33.50;67.50;;;;;;1869524;75;20228;-80
2021/06/25 06:40:27;;;;;;;;;;;33.60;69.20;;;;;;1864539;75;20499;-81
2021/06/25 06:43:31;;;;;;;;;;;33.80;68.70;;;;;;1874878;75;20204;-80
2021/06/25 06:46:03;;;;;;;;;;;33.90;67.10;;;;;;1840941;75;20157;-80
2021/06/25 06:48:33;;;;;;;;;;;34.10;66.60;;;;;;1866638;75;20236;-81
2021/06/25 06:51:07;;;;;;;;;;;34.10;65.80;;;;;;1877893;75;20381;-80
2021/06/25 06:53:42;;;;;;;;;;;34.10;66.30;;;;;;1876342;75;20077;-80
2021/06/25 06:56:10;;;;;;;;;;;34.10;66.50;;;;;;1875512;75;20173;-81
2021/06/25 06:58:39;;;;;;;;;;;34.10;65.20;;;;;;1834738;77;20583;-79
2021/06/25 07:01:09;;;;;;;;;;;34.20;65.70;;;;;;1827711;77;20190;-80
2021/06/25 07:03:45;;;;;;;;;;;34.20;63.90;;;;;;1841123;77;20516;-80
2021/06/25 07:06:12;;;;;;;;;;;34.20;64.80;;;;;;1831164;77;20161;-80
2021/06/25 07:08:43;;;;;;;;;;;34.20;65.40;;;;;;1821795;77;20265;-79
2021/06/25 07:11:15;;;;;;;;;;;34.20;63.60;;;;;;1811887;78;20249;-80
2021/06/25 07:13:45;;;;;;;;;;;34.10;65.10;;;;;;1836286;78;20214;-80
2021/06/25 07:16:14;;;;;;;;;;;34.10;65.90;;;;;;1830511;77;20175;-80
2021/06/25 07:18:44;;;;;;;;;;;34.10;64.40;;;;;;1815962;77;20200;-80
2021/06/25 07:21:28;;;;;;;;;;;34.10;65.40;;;;;;1838170;77;20182;-81
2021/06/25 07:23:50;;;;;;;;;;;34.10;65.20;;;;;;1842355;77;20330;-80
2021/06/25 07:26:20;;;;;;;;;;;34.00;63.20;;;;;;1849401;77;20219;-80
2021/06/25 07:28:50;;;;;;;;;;;33.90;63.70;;;;;;1836263;78;20206;-81
2021/06/25 07:34:25;;;;;;;;;;;33.80;65.60;;;;;;1877349;73;20228;-78
2021/06/25 07:36:54;;;;;;;;;;;33.90;64.30;;;;;;1880480;75;20221;-80
2021/06/25 07:39:24;;;;;;;;;;;34.00;65.30;;;;;;1894449;75;20234;-81
2021/06/25 07:41:54;;;;;;;;;;;34.00;65.60;;;;;;1910579;74;20567;-81
2021/06/25 07:44:24;;;;;;;;;;;33.90;66.00;;;;;;1902226;74;20281;-83
2021/06/25 07:46:53;;;;;;;;;;;33.90;67.70;;;;;;1893699;74;20549;-82
2021/06/25 07:49:23;;;;;;;;;;;33.90;66.40;;;;;;1896332;74;20162;-84
2021/06/25 07:51:53;;;;;;;;;;;33.90;65.80;;;;;;1913841;74;20204;-84
2021/06/25 07:54:24;;;;;;;;;;;34.00;65.70;;;;;;1918879;74;20241;-84
2021/06/25 07:56:55;;;;;;;;;;;34.00;66.20;;;;;;1908628;74;20170;-84
2021/06/25 08:41:20;;;;;;;;;;;33.70;71.50;;;;;;1921816;73;20173;-76
2021/06/25 08:43:50;;;;;;;;;;;33.60;71.90;;;;;;1923495;74;20227;-78
2021/06/25 08:46:21;;;;;;;;;;;33.60;72.90;;;;;;1914865;73;20228;-78
2021/06/25 08:48:52;;;;;;;;;;;33.50;73.10;;;;;;1896971;75;20361;-78
2021/06/25 08:51:22;;;;;;;;;;;33.60;72.80;;;;;;1906865;74;20180;-78
2021/06/25 08:53:53;;;;;;;;;;;33.50;72.70;;;;;;1920633;73;20117;-79
2021/06/25 08:56:24;;;;;;;;;;;33.50;71.30;;;;;;1925672;73;20195;-79
2021/06/25 08:58:54;;;;;;;;;;;33.50;71.10;;;;;;1934776;73;20163;-78
2021/06/25 09:01:25;;;;;;;;;;;33.50;70.50;;;;;;1940238;73;20173;-78
2021/06/25 09:03:55;;;;;;;;;;;33.50;71.00;;;;;;1973418;73;20185;-79
2021/06/25 09:06:26;;;;;;;;;;;33.50;68.40;;;;;;1909283;75;20169;-78
2021/06/25 09:08:57;;;;;;;;;;;33.40;68.30;;;;;;1913628;72;20213;-78
2021/06/25 09:11:32;;;;;;;;;;;33.50;67.80;;;;;;1929810;72;20190;-78
2021/06/25 09:14:03;;;;;;;;;;;33.50;67.00;;;;;;1918776;73;20293;-78
2021/06/25 09:16:39;;;;;;;;;;;33.60;68.50;;;;;;1922471;73;20101;-79
2021/06/25 09:19:10;;;;;;;;;;;33.60;69.20;;;;;;1957531;72;20208;-79
2021/06/25 09:21:41;;;;;;;;;;;33.70;66.70;;;;;;1955840;72;20155;-79
2021/06/25 09:24:13;;;;;;;;;;;33.70;64.60;;;;;;1947987;73;20167;-79
2021/06/25 09:26:45;;;;;;;;;;;33.60;63.00;;;;;;1926864;73;20254;-78
2021/06/25 09:29:19;;;;;;;;;;;33.60;63.20;;;;;;1928302;72;20207;-79
2021/06/25 09:31:50;;;;;;;;;;;33.50;63.00;;;;;;1943526;73;20242;-78
2021/06/25 09:34:24;;;;;;;;;;;33.40;63.30;;;;;;1927106;74;20126;-77
2021/06/25 09:36:55;;;;;;;;;;;33.40;63.50;;;;;;1953927;72;20266;-78
2021/06/25 09:39:27;;;;;;;;;;;33.30;63.60;;;;;;1911308;72;20250;-79
2021/06/25 09:41:56;;;;;;;;;;;33.30;63.50;;;;;;1887643;74;20277;-79
2021/06/25 09:44:27;;;;;;;;;;;33.30;64.10;;;;;;1885786;75;20138;-78
2021/06/25 09:46:59;;;;;;;;;;;33.30;64.40;;;;;;1975489;72;20185;-79
2021/06/25 09:49:33;;;;;;;;;;;33.20;64.30;;;;;;1963506;72;20521;-78
2021/06/25 09:52:05;;;;;;;;;;;33.20;64.50;;;;;;1981566;72;20230;-80
2021/06/25 09:54:34;;;;;;;;;;;33.20;64.60;;;;;;1955058;72;20504;-79
2021/06/25 09:57:09;;;;;;;;;;;33.20;64.30;;;;;;1978604;72;20179;-78
2021/06/25 10:02:16;;;;;;;;;;;33.30;64.80;;;;;;1952571;72;20229;-78
2021/06/25 10:04:47;;;;;;;;;;;33.30;64.50;;;;;;1958970;72;20180;-79
2021/06/25 10:07:18;;;;;;;;;;;33.20;64.70;;;;;;1951849;73;20203;-77
2021/06/25 10:09:49;;;;;;;;;;;33.20;63.70;;;;;;1945240;73;20175;-77
2021/06/25 10:12:20;;;;;;;;;;;33.20;63.00;;;;;;1906919;74;20132;-78
2021/06/25 10:14:51;;;;;;;;;;;33.20;64.60;;;;;;1943012;74;20505;-77
2021/06/25 10:17:22;;;;;;;;;;;33.20;62.20;;;;;;1931270;73;20562;-78
2021/06/25 10:19:52;;;;;;;;;;;33.20;62.40;;;;;;1909637;73;20467;-77
2021/06/25 10:22:25;;;;;;;;;;;33.20;62.70;;;;;;1901548;73;20174;-76
2021/06/25 10:24:54;;;;;;;;;;;33.20;62.20;;;;;;1892035;75;20201;-76
2021/06/25 10:27:26;;;;;;;;;;;33.20;62.20;;;;;;1906123;75;20145;-76
2021/06/25 10:29:57;;;;;;;;;;;33.20;62.30;;;;;;1888522;75;20253;-77
2021/06/25 10:32:27;;;;;;;;;;;33.20;63.00;;;;;;1956034;73;20171;-77
2021/06/25 10:35:17;;;;;;;;;;;33.20;60.80;;;;;;1956069;73;20214;-76
2021/06/25 10:37:48;;;;;;;;;;;33.20;62.20;;;;;;1864010;76;20169;-78
2021/06/25 10:40:19;;;;;;;;;;;33.20;61.90;;;;;;1912693;74;20162;-78
2021/06/25 10:42:49;;;;;;;;;;;33.10;60.60;;;;;;1905171;74;20427;-77
2021/06/25 10:45:20;;;;;;;;;;;33.10;60.30;;;;;;1901322;75;20158;-77
2021/06/25 10:47:50;;;;;;;;;;;33.20;62.30;;;;;;1895884;75;20203;-78
2021/06/25 10:50:23;;;;;;;;;;;33.10;61.70;;;;;;1876166;74;20173;-79
2021/06/25 10:52:53;;;;;;;;;;;33.10;64.20;;;;;;1892981;75;20434;-78
2021/06/25 10:55:25;;;;;;;;;;;33.10;61.70;;;;;;1905025;75;20444;-78
2021/06/25 10:57:56;;;;;;;;;;;33.10;61.80;;;;;;1856864;76;20196;-78
2021/06/25 11:00:31;;;;;;;;;;;33.10;60.90;;;;;;1838221;77;20170;-77
2021/06/25 11:02:59;;;;;;;;;;;33.00;60.90;;;;;;1845648;77;20218;-78
2021/06/25 11:05:30;;;;;;;;;;;33.00;61.40;;;;;;1846283;77;20190;-78
2021/06/25 11:08:00;;;;;;;;;;;33.00;61.00;;;;;;1843516;77;20217;-78
2021/06/25 11:10:31;;;;;;;;;;;33.00;61.50;;;;;;1843530;76;20170;-78
2021/06/25 11:13:03;;;;;;;;;;;33.00;62.00;;;;;;1846473;77;20202;-78
2021/06/25 11:15:33;;;;;;;;;;;33.00;62.30;;;;;;1842037;77;20472;-78
2021/06/25 11:18:04;;;;;;;;;;;32.90;62.40;;;;;;1841792;77;20146;-78
2021/06/25 11:20:35;;;;;;;;;;;32.90;63.00;;;;;;1845092;77;20449;-78
2021/06/25 11:23:06;;;;;;;;;;;32.90;63.50;;;;;;1847309;77;20256;-78
2021/06/25 11:25:37;;;;;;;;;;;32.90;64.50;;;;;;1846222;77;20245;-78
2021/06/25 11:28:09;;;;;;;;;;;32.90;71.60;;;;;;1844747;77;20221;-78
2021/06/25 11:30:40;;;;;;;;;;;32.70;72.60;;;;;;1838336;76;20151;-78
2021/06/25 11:33:11;;;;;;;;;;;32.60;75.10;;;;;;1844544;77;20437;-78
2021/06/25 11:35:41;;;;;;;;;;;32.40;75.30;;;;;;1856443;77;20165;-79
2021/06/25 11:38:11;;;;;;;;;;;32.30;75.30;;;;;;1844078;76;20308;-78
2021/06/25 11:40:42;;;;;;;;;;;32.10;75.70;;;;;;1842551;76;20196;-79
2021/06/25 11:43:14;;;;;;;;;;;32.10;76.30;;;;;;1842232;77;20236;-78
2021/06/25 11:45:46;;;;;;;;;;;32.00;76.80;;;;;;1889155;75;20611;-79
2021/06/25 11:48:18;;;;;;;;;;;31.90;77.30;;;;;;1890280;75;20130;-79
2021/06/25 11:50:50;;;;;;;;;;;31.80;79.10;;;;;;1891714;75;20202;-78
2021/06/25 11:53:19;;;;;;;;;;;31.70;80.00;;;;;;1889176;75;20205;-78
2021/06/25 11:55:50;;;;;;;;;;;31.70;80.20;;;;;;1890507;75;20272;-78
2021/06/25 11:58:20;;;;;;;;;;;31.60;80.70;;;;;;1887599;75;20456;-78
2021/06/25 12:00:51;;;;;;;;;;;31.60;81.50;;;;;;1892666;75;20209;-76
2021/06/25 12:03:26;;;;;;;;;;;31.50;81.10;;;;;;1890490;75;20210;-78
2021/06/25 12:05:57;;;;;;;;;;;31.50;81.40;;;;;;1897924;75;20202;-78
2021/06/25 12:08:27;;;;;;;;;;;31.50;80.20;;;;;;1892680;75;20190;-79
2021/06/25 12:10:59;;;;;;;;;;;31.50;79.80;;;;;;1891682;75;20131;-78
2021/06/25 12:13:30;;;;;;;;;;;31.50;79.50;;;;;;1891613;75;20131;-78
2021/06/25 12:16:00;;;;;;;;;;;31.40;79.30;;;;;;1891857;75;20256;-78
2021/06/25 12:18:30;;;;;;;;;;;31.40;79.60;;;;;;1876595;76;20571;-78
2021/06/25 12:21:01;;;;;;;;;;;31.40;79.80;;;;;;1876765;76;20225;-78
2021/06/25 12:23:31;;;;;;;;;;;31.30;79.90;;;;;;1877620;75;20466;-89
2021/06/25 12:26:01;;;;;;;;;;;31.30;79.90;;;;;;1902802;75;20249;-91
2021/06/25 12:28:33;;;;;;;;;;;31.20;79.40;;;;;;1898499;75;20206;-89
2021/06/25 12:31:05;;;;;;;;;;;31.20;79.40;;;;;;1894958;75;20225;-92
2021/06/25 12:33:36;;;;;;;;;;;31.20;79.90;;;;;;1893323;75;20131;-94
2021/06/25 12:36:06;;;;;;;;;;;31.20;79.80;;;;;;1893463;75;20202;-93
2021/06/25 12:38:36;;;;;;;;;;;31.20;79.90;;;;;;1890353;75;20112;-94
2021/06/25 12:41:07;;;;;;;;;;;31.20;81.20;;;;;;1892049;75;20130;-91
2021/06/25 12:43:38;;;;;;;;;;;31.10;80.90;;;;;;1888304;74;20213;-90
2021/06/25 12:46:12;;;;;;;;;;;31.00;80.40;;;;;;1894932;74;20131;-92
2021/06/25 12:48:41;;;;;;;;;;;31.00;81.00;;;;;;1887300;75;20130;-90
2021/06/25 12:51:12;;;;;;;;;;;31.00;81.00;;;;;;1894516;74;20200;-93
2021/06/25 12:56:21;;;;;;;;;;;30.90;81.60;;;;;;1892741;74;20216;-91
2021/06/25 12:58:48;;;;;;;;;;;30.90;80.80;;;;;;1889965;75;20382;-90
2021/06/25 13:01:17;;;;;;;;;;;30.80;80.90;;;;;;1891396;74;20162;-93
2021/06/25 13:03:48;;;;;;;;;;;30.70;82.30;;;;;;1888951;75;20180;-91
2021/06/25 13:06:18;;;;;;;;;;;30.70;83.10;;;;;;1889344;75;20449;-91
2021/06/25 13:08:48;;;;;;;;;;;30.70;83.00;;;;;;1892793;75;20174;-92
2021/06/25 13:11:19;;;;;;;;;;;30.60;82.30;;;;;;1900951;74;20170;-92
2021/06/25 13:13:49;;;;;;;;;;;30.60;83.00;;;;;;1894759;74;20295;-91
2021/06/25 13:16:20;;;;;;;;;;;30.60;83.40;;;;;;1891105;74;20269;-91
2021/06/25 13:18:51;;;;;;;;;;;30.60;82.50;;;;;;1892971;74;20641;-91
2021/06/25 13:21:22;;;;;;;;;;;30.60;83.20;;;;;;1891873;74;20232;-91
2021/06/25 13:23:53;;;;;;;;;;;30.50;83.20;;;;;;1893813;75;20221;-91
2021/06/25 13:26:23;;;;;;;;;;;30.50;83.10;;;;;;1892248;74;20502;-90
2021/06/25 13:28:54;;;;;;;;;;;30.50;83.00;;;;;;1885912;75;20253;-91
2021/06/25 13:31:24;;;;;;;;;;;30.40;83.30;;;;;;1891323;74;20181;-90
2021/06/25 13:33:55;;;;;;;;;;;30.40;83.20;;;;;;1892213;74;20189;-91
2021/06/25 13:36:24;;;;;;;;;;;30.40;83.40;;;;;;1887461;75;20164;-89
2021/06/25 13:38:55;;;;;;;;;;;30.30;83.00;;;;;;1900672;73;20142;-88
2021/06/25 13:41:25;;;;;;;;;;;30.30;83.60;;;;;;1903833;75;20267;-90
2021/06/25 13:43:56;;;;;;;;;;;30.30;83.50;;;;;;1900338;75;20193;-90
2021/06/25 13:46:27;;;;;;;;;;;30.30;83.70;;;;;;1903068;73;20256;-92
2021/06/25 13:48:57;;;;;;;;;;;30.30;84.20;;;;;;1904355;75;20237;-90
2021/06/25 13:51:28;;;;;;;;;;;30.30;84.20;;;;;;1906881;74;20520;-91
2021/06/25 13:53:57;;;;;;;;;;;30.30;84.30;;;;;;1901167;74;20405;-91
2021/06/25 13:56:31;;;;;;;;;;;30.20;83.90;;;;;;1904610;75;20476;-92
2021/06/25 13:59:01;;;;;;;;;;;30.20;83.50;;;;;;1910918;75;20240;-92
2021/06/25 14:01:32;;;;;;;;;;;30.10;83.60;;;;;;1903975;75;20298;-92
2021/06/25 14:04:07;;;;;;;;;;;30.10;83.80;;;;;;1909688;75;20228;-89
2021/06/25 14:06:38;;;;;;;;;;;30.10;84.30;;;;;;1888227;74;20225;-91
2021/06/25 14:09:08;;;;;;;;;;;30.10;84.60;;;;;;1886761;76;20219;-92
2021/06/25 14:11:41;;;;;;;;;;;30.10;84.40;;;;;;1919820;74;20325;-92
2021/06/25 14:14:11;;;;;;;;;;;30.10;84.50;;;;;;1920555;74;20466;-91
2021/06/25 14:16:41;;;;;;;;;;;30.00;84.40;;;;;;1911866;74;20177;-91
2021/06/25 14:19:12;;;;;;;;;;;30.00;84.60;;;;;;1906956;74;20193;-90
2021/06/25 14:21:43;;;;;;;;;;;30.00;85.50;;;;;;1910837;73;20205;-92
2021/06/25 14:24:14;;;;;;;;;;;30.00;85.50;;;;;;1923782;74;20189;-92
2021/06/25 14:26:44;;;;;;;;;;;29.90;85.70;;;;;;1925746;74;20204;-91
2021/06/25 14:29:16;;;;;;;;;;;29.90;85.60;;;;;;1921872;73;20181;-90
2021/06/25 14:31:46;;;;;;;;;;;29.90;86.60;;;;;;1919190;74;20252;-91
2021/06/25 14:34:17;;;;;;;;;;;29.90;86.90;;;;;;1922857;73;20189;-92
2021/06/25 14:36:47;;;;;;;;;;;29.90;86.80;;;;;;1918908;73;20208;-91
2021/06/25 14:39:21;;;;;;;;;;;29.90;86.70;;;;;;1901868;74;20205;-91
2021/06/25 14:41:49;;;;;;;;;;;29.90;86.50;;;;;;1903983;74;20281;-92
2021/06/25 14:44:24;;;;;;;;;;;29.80;87.00;;;;;;1908270;74;20185;-90
2021/06/25 14:46:49;;;;;;;;;;;29.80;87.00;;;;;;1889139;75;20194;-90
2021/06/25 14:49:20;;;;;;;;;;;29.80;87.50;;;;;;1899923;75;20213;-91
2021/06/25 14:51:52;;;;;;;;;;;29.80;87.50;;;;;;1907349;75;20178;-92
2021/06/25 14:54:22;;;;;;;;;;;29.70;87.30;;;;;;1895661;75;20199;-92
2021/06/25 14:56:51;;;;;;;;;;;29.70;87.50;;;;;;1897046;75;20209;-92
2021/06/25 14:59:35;;;;;;;;;;;29.70;87.90;;;;;;1901491;75;20225;-92
2021/06/25 15:01:52;;;;;;;;;;;29.70;88.00;;;;;;1903179;75;20244;-93
2021/06/25 15:04:22;;;;;;;;;;;29.60;88.10;;;;;;1901196;75;20170;-92
2021/06/25 15:06:52;;;;;;;;;;;29.60;88.80;;;;;;1892581;75;20247;-90
2021/06/25 15:09:24;;;;;;;;;;;29.60;89.10;;;;;;1895835;75;20253;-91
2021/06/25 15:11:54;;;;;;;;;;;29.60;88.50;;;;;;1897596;75;20158;-90
2021/06/25 15:14:25;;;;;;;;;;;29.60;89.60;;;;;;1898454;75;20123;-90
2021/06/25 15:16:54;;;;;;;;;;;29.60;89.30;;;;;;1880906;75;20259;-92
2021/06/25 15:19:24;;;;;;;;;;;29.60;88.70;;;;;;1897279;75;20476;-91
2021/06/25 15:21:54;;;;;;;;;;;29.60;89.20;;;;;;1900062;75;20189;-92
2021/06/25 15:24:24;;;;;;;;;;;29.60;88.80;;;;;;1904090;75;20170;-92
2021/06/25 15:26:54;;;;;;;;;;;29.60;89.00;;;;;;1902449;74;20192;-92
2021/06/25 15:29:25;;;;;;;;;;;29.60;89.30;;;;;;1898480;75;20185;-93
2021/06/25 15:31:55;;;;;;;;;;;29.60;89.70;;;;;;1899896;75;20227;-89
2021/06/25 15:34:25;;;;;;;;;;;29.60;90.00;;;;;;1897855;73;20184;-93
2021/06/25 15:36:54;;;;;;;;;;;29.60;89.80;;;;;;1895596;74;20181;-90
2021/06/25 15:39:24;;;;;;;;;;;29.60;90.00;;;;;;1899420;73;20299;-91
2021/06/25 15:41:54;;;;;;;;;;;29.60;89.70;;;;;;1899122;75;20147;-91
2021/06/25 15:44:24;;;;;;;;;;;29.60;90.10;;;;;;1897767;74;20193;-92
2021/06/25 15:46:59;;;;;;;;;;;29.60;90.10;;;;;;1899318;74;20178;-91
2021/06/25 15:49:32;;;;;;;;;;;29.60;90.10;;;;;;1899447;75;20177;-90
2021/06/25 15:52:02;;;;;;;;;;;29.60;89.70;;;;;;1901482;73;20154;-92